Terminal Aerodrome Forecast
Issued by NWS

Home | Current Version | Previous Version | Text Only | Print | Product List | Glossary On
Versions: 1 2 3 4 5 6 7 8 9 10 11 12 13 14 15 16 17 18 19 20 21 22 23
051
FTUS43 KDLH 010632 AAA
TAFBRD
TAF AMD
KBRD 010632Z 0107/0206 19008G18KT P6SM BKN060
     FM011100 22009G18KT P6SM VCSH BKN025
     FM011600 25013G20KT P6SM VCSH SCT020 BKN030
      TEMPO 0117/0121 6SM -SHRA BKN020
     FM020200 29010KT P6SM OVC022=

USA.gov is the U.S. government's official web portal to all federal, state and local government web resources and services.